Time;durP1;ratioP1;P1;durP2;ratioP2;P2;SDS_P1;SDS_P2;PMS_P1;PMS_P2;Temp;Humidity;BMP_temperature;BMP_pressure;BME280_temperature;BME280_humidity;BME280_pressure;Samples;Min_cycle;Max_cycle;Signal;HPM_P1;HPM_P2
2022/03/09 00:01:52;;;;;;;20.90;15.10;;;;;;;-3.78;100.00;97012.66;5009703;28;20545;-73
2022/03/09 00:04:19;;;;;;;20.03;11.07;;;;;;;-3.65;100.00;97028.78;5009429;28;20465;-73
2022/03/09 00:06:45;;;;;;;22.43;13.93;;;;;;;-3.62;100.00;97046.44;4993001;28;20437;-73
2022/03/09 00:09:13;;;;;;;18.23;12.70;;;;;;;-3.74;100.00;97045.63;4992990;28;20447;-73
2022/03/09 00:11:40;;;;;;;24.27;12.70;;;;;;;-3.44;100.00;97070.69;4994289;28;20786;-73
2022/03/09 00:14:08;;;;;;;14.30;11.40;;;;;;;-3.47;100.00;97065.94;5009076;28;20468;-73
2022/03/09 00:16:35;;;;;;;15.40;10.50;;;;;;;-3.66;100.00;97058.22;4992698;28;20432;-72
2022/03/09 00:19:07;;;;;;;15.37;10.00;;;;;;;-3.91;100.00;97032.47;5008417;28;20509;-73
2022/03/09 00:21:34;;;;;;;16.10;10.33;;;;;;;-3.89;100.00;97056.28;5008714;28;20532;-74
2022/03/09 00:24:00;;;;;;;15.83;10.40;;;;;;;-3.54;100.00;97060.88;4993973;28;20499;-72
2022/03/09 00:26:28;;;;;;;16.37;10.00;;;;;;;-3.99;100.00;97003.59;5008496;28;20445;-73
2022/03/09 00:28:55;;;;;;;14.97;9.43;;;;;;;-3.75;100.00;97056.16;4976403;28;20528;-72
2022/03/09 00:31:21;;;;;;;12.27;9.67;;;;;;;-3.92;100.00;97043.03;5008776;28;20563;-73
2022/03/09 00:33:48;;;;;;;20.20;11.07;;;;;;;-3.88;100.00;97067.41;4992673;28;20476;-72
2022/03/09 00:36:15;;;;;;;13.73;9.63;;;;;;;-4.00;100.00;97053.66;4993528;28;20443;-72
2022/03/09 00:38:42;;;;;;;14.13;10.00;;;;;;;-4.31;100.00;97026.97;4992334;28;20856;-72
2022/03/09 00:41:09;;;;;;;22.50;10.50;;;;;;;-3.96;100.00;97054.81;4993490;28;21007;-73
2022/03/09 00:43:36;;;;;;;12.53;10.40;;;;;;;-4.08;100.00;97048.78;4991951;28;21018;-73
2022/03/09 00:46:03;;;;;;;13.07;11.67;;;;;;;-4.23;100.00;97021.53;4992021;28;20515;-73
2022/03/09 00:48:30;;;;;;;13.90;11.27;;;;;;;-4.27;100.00;97058.31;4992070;28;20468;-73
2022/03/09 00:50:57;;;;;;;13.53;11.30;;;;;;;-4.22;100.00;97038.59;4993425;28;20501;-73
2022/03/09 00:53:24;;;;;;;15.47;10.47;;;;;;;-4.35;100.00;97006.97;5008094;28;20496;-74
2022/03/09 00:55:50;;;;;;;19.90;10.80;;;;;;;-4.45;100.00;97004.88;4962825;28;20450;-74
2022/03/09 00:58:17;;;;;;;12.23;8.90;;;;;;;-4.19;100.00;97007.19;5007897;28;20540;-73
2022/03/09 01:00:43;;;;;;;10.10;9.00;;;;;;;-4.01;100.00;97041.75;5007654;28;20532;-73
2022/03/09 01:03:10;;;;;;;16.13;10.60;;;;;;;-4.20;100.00;97036.59;5007714;28;20435;-73
2022/03/09 01:05:39;;;;;;;16.30;8.83;;;;;;;-4.11;100.00;97055.16;4992682;28;20429;-73
2022/03/09 01:08:07;;;;;;;10.57;8.73;;;;;;;-4.07;100.00;97040.81;4991488;28;20512;-72
2022/03/09 01:10:34;;;;;;;15.50;9.33;;;;;;;-4.60;100.00;97022.50;5007518;28;20432;-73
2022/03/09 01:13:01;;;;;;;17.77;9.03;;;;;;;-5.28;100.00;97012.91;4990872;28;21432;-73
2022/03/09 01:15:28;;;;;;;18.83;11.43;;;;;;;-5.50;100.00;97029.69;5007255;28;20479;-73
2022/03/09 01:17:54;;;;;;;17.87;11.13;;;;;;;-5.06;100.00;97062.34;5007341;28;20931;-73
2022/03/09 01:20:21;;;;;;;16.57;10.60;;;;;;;-4.94;100.00;97052.13;5007151;28;20503;-73
2022/03/09 01:22:48;;;;;;;13.87;9.60;;;;;;;-4.66;100.00;97067.19;4990865;28;20433;-73
2022/03/09 01:25:15;;;;;;;12.83;10.03;;;;;;;-4.78;100.00;97042.09;4990683;28;20553;-73
2022/03/09 01:27:42;;;;;;;17.33;11.17;;;;;;;-4.62;100.00;97060.59;5007138;28;20437;-73
2022/03/09 01:30:09;;;;;;;10.70;8.67;;;;;;;-4.78;100.00;97049.81;4990699;28;20445;-73
2022/03/09 01:32:36;;;;;;;11.87;9.90;;;;;;;-4.55;100.00;97066.47;5006960;28;20511;-73
2022/03/09 01:35:04;;;;;;;13.40;9.97;;;;;;;-4.52;100.00;97066.88;5007310;28;20464;-72
2022/03/09 01:37:30;;;;;;;15.73;9.67;;;;;;;-4.54;100.00;97053.41;5007063;28;20463;-73
2022/03/09 01:39:57;;;;;;;14.50;10.17;;;;;;;-4.69;100.00;97019.38;5006763;28;20945;-72
2022/03/09 01:42:24;;;;;;;12.20;9.67;;;;;;;-4.48;100.00;97033.69;4990682;28;20477;-73
2022/03/09 01:44:51;;;;;;;16.80;9.70;;;;;;;-4.44;100.00;97045.16;4990248;28;20845;-73
2022/03/09 01:47:18;;;;;;;11.77;9.17;;;;;;;-4.31;100.00;97059.72;4990469;28;20452;-73
2022/03/09 01:49:45;;;;;;;18.77;10.37;;;;;;;-4.50;100.00;97056.34;4990456;28;20487;-72
2022/03/09 01:52:12;;;;;;;17.77;11.20;;;;;;;-4.47;100.00;97068.81;4990424;28;20540;-72
2022/03/09 01:54:39;;;;;;;19.23;9.67;;;;;;;-4.34;100.00;97067.91;4991521;28;20467;-72
2022/03/09 01:57:06;;;;;;;16.17;9.97;;;;;;;-4.50;100.00;97058.91;4990504;28;20949;-72
2022/03/09 01:59:34;;;;;;;17.10;10.30;;;;;;;-4.57;100.00;97063.34;5006495;28;20440;-72
2022/03/09 02:02:02;;;;;;;12.73;9.50;;;;;;;-4.44;100.00;97072.75;5006736;28;20428;-72
2022/03/09 02:04:29;;;;;;;21.13;14.80;;;;;;;-4.42;100.00;97056.03;4990169;28;20453;-72
2022/03/09 02:06:57;;;;;;;12.93;10.30;;;;;;;-4.32;100.00;97081.38;4990405;28;20432;-72
2022/03/09 02:09:44;;;;;;;15.10;10.43;;;;;;;-4.41;100.00;97073.09;4974116;28;20440;-72
2022/03/09 02:12:13;;;;;;;13.70;8.67;;;;;;;-4.60;100.00;97043.91;5006548;28;20445;-73
2022/03/09 02:14:52;;;;;;;11.17;9.20;;;;;;;-4.68;100.00;97062.22;5006327;28;20508;-73
2022/03/09 02:17:25;;;;;;;15.00;10.90;;;;;;;-4.68;100.00;97057.06;5006629;28;20483;-73
2022/03/09 02:19:52;;;;;;;16.87;9.53;;;;;;;-4.82;100.00;97034.97;4991643;28;20463;-73
2022/03/09 02:22:18;;;;;;;13.87;8.70;;;;;;;-4.49;100.00;97061.28;5006381;28;20543;-73
2022/03/09 02:24:50;;;;;;;12.33;9.43;;;;;;;-4.61;100.00;97038.97;5006432;28;20520;-73
2022/03/09 02:27:21;;;;;;;17.10;10.00;;;;;;;-4.88;100.00;97021.13;5006474;28;20432;-73
2022/03/09 02:29:50;;;;;;;12.77;8.67;;;;;;;-4.74;100.00;97055.34;4981600;28;20457;-73
2022/03/09 02:32:17;;;;;;;12.00;7.83;;;;;;;-5.00;100.00;97048.59;4991340;28;20425;-73
2022/03/09 02:34:45;;;;;;;14.93;10.70;;;;;;;-5.24;100.00;97051.94;4991204;28;20507;-73
2022/03/09 02:37:12;;;;;;;13.63;9.93;;;;;;;-5.20;100.00;97042.81;4990093;28;20945;-73
2022/03/09 02:39:39;;;;;;;17.33;9.30;;;;;;;-5.33;100.00;97019.69;5006212;28;20515;-72
2022/03/09 02:42:08;;;;;;;14.00;8.80;;;;;;;-5.10;100.00;97049.06;4990121;28;20536;-72
2022/03/09 02:44:35;;;;;;;17.43;11.23;;;;;;;-5.40;100.00;97012.00;5006093;28;20457;-72
2022/03/09 02:47:03;;;;;;;12.13;9.23;;;;;;;-5.13;100.00;97033.22;4973935;28;20442;-72
2022/03/09 02:49:30;;;;;;;12.40;8.10;;;;;;;-5.20;100.00;97032.50;4989996;28;20420;-72
2022/03/09 02:51:56;;;;;;;13.73;10.17;;;;;;;-5.23;100.00;97007.91;4989829;28;20472;-72
2022/03/09 02:54:23;;;;;;;15.63;11.10;;;;;;;-5.18;100.00;97030.50;5005935;28;20528;-72
2022/03/09 02:56:49;;;;;;;10.97;9.50;;;;;;;-5.06;100.00;97034.75;4991217;28;20532;-72
2022/03/09 02:59:16;;;;;;;12.67;9.67;;;;;;;-5.20;100.00;97020.41;4994818;28;20883;-72
2022/03/09 03:01:43;;;;;;;16.60;9.17;;;;;;;-5.37;100.00;97027.81;5009865;28;20432;-72
2022/03/09 03:04:10;;;;;;;12.63;10.30;;;;;;;-5.70;100.00;97022.06;4994708;28;20468;-72
2022/03/09 03:06:38;;;;;;;13.63;10.00;;;;;;;-5.40;100.00;97048.84;4994732;28;20434;-72
2022/03/09 03:09:05;;;;;;;22.33;10.73;;;;;;;-5.67;100.00;97043.03;4994675;28;20789;-73
2022/03/09 03:11:31;;;;;;;12.20;8.60;;;;;;;-5.52;100.00;97044.56;4994682;28;20530;-72
2022/03/09 03:13:58;;;;;;;14.07;9.17;;;;;;;-5.68;100.00;97010.56;5009315;28;20480;-72
2022/03/09 03:16:25;;;;;;;19.30;10.67;;;;;;;-5.35;100.00;97038.69;5009570;28;20487;-72
2022/03/09 03:18:51;;;;;;;12.47;9.57;;;;;;;-5.36;100.00;97042.28;4994443;28;20437;-72
2022/03/09 03:21:18;;;;;;;15.37;10.73;;;;;;;-5.66;100.00;97006.00;5009588;28;20871;-72
2022/03/09 03:23:47;;;;;;;14.53;10.10;;;;;;;-5.54;100.00;97025.94;4994275;28;20479;-72
2022/03/09 03:26:14;;;;;;;13.00;9.80;;;;;;;-5.68;100.00;97015.72;4976898;28;20831;-72
2022/03/09 03:28:41;;;;;;;17.47;8.97;;;;;;;-5.61;100.00;97050.94;4991950;28;20519;-72
2022/03/09 03:31:07;;;;;;;14.97;9.43;;;;;;;-5.59;100.00;97044.59;4986620;28;20488;-72
2022/03/09 03:33:34;;;;;;;11.73;10.53;;;;;;;-5.70;100.00;97020.28;4992623;28;20650;-72
2022/03/09 03:36:01;;;;;;;12.50;9.97;;;;;;;-5.66;100.00;97036.09;4992831;28;20730;-72
2022/03/09 03:38:28;;;;;;;11.53;9.50;;;;;;;-5.59;100.00;97044.59;5008837;28;20433;-72
2022/03/09 03:40:55;;;;;;;18.77;12.00;;;;;;;-5.33;100.00;97059.13;5008945;28;20477;-72
2022/03/09 03:43:21;;;;;;;18.33;10.27;;;;;;;-5.46;100.00;97036.00;4976546;28;20472;-72
2022/03/09 03:45:48;;;;;;;13.63;9.67;;;;;;;-5.21;100.00;97062.63;5009057;28;20852;-72
2022/03/09 03:48:14;;;;;;;15.13;9.80;;;;;;;-5.33;100.00;97033.38;4992646;28;20437;-72
2022/03/09 03:50:41;;;;;;;11.30;9.23;;;;;;;-5.21;100.00;97066.97;4993918;28;20456;-72
2022/03/09 03:53:08;;;;;;;15.73;11.23;;;;;;;-5.47;100.00;97048.09;4993629;28;20511;-72
2022/03/09 03:55:35;;;;;;;15.53;10.73;;;;;;;-5.25;100.00;97084.63;4992455;28;20436;-72
2022/03/09 03:58:01;;;;;;;9.83;8.20;;;;;;;-5.42;100.00;97055.22;4993764;28;20516;-72
2022/03/09 04:00:28;;;;;;;15.47;11.03;;;;;;;-5.48;100.00;97061.16;4993751;28;20520;-72
2022/03/09 04:03:00;;;;;;;14.40;10.73;;;;;;;-5.48;100.00;97080.00;5008986;28;20854;-72
2022/03/09 04:05:28;;;;;;;13.83;11.50;;;;;;;-5.71;100.00;97065.06;4993619;28;20944;-72
2022/03/09 04:07:55;;;;;;;12.47;10.27;;;;;;;-5.71;100.00;97082.28;4992339;28;20502;-73
2022/03/09 04:10:23;;;;;;;11.63;9.73;;;;;;;-5.61;100.00;97087.78;4992169;28;20476;-72
2022/03/09 04:12:49;;;;;;;14.33;11.57;;;;;;;-5.62;100.00;97073.31;4976186;28;20471;-72
2022/03/09 04:15:16;;;;;;;17.20;11.40;;;;;;;-5.70;100.00;97076.94;4991960;28;20917;-72
2022/03/09 04:17:44;;;;;;;15.23;9.80;;;;;;;-5.69;100.00;97050.19;4993582;28;20429;-72
2022/03/09 04:20:13;;;;;;;14.50;9.50;;;;;;;-5.30;100.00;97083.69;4992023;28;20471;-72
2022/03/09 04:22:41;;;;;;;10.53;8.77;;;;;;;-5.53;100.00;97058.44;4993324;28;21007;-72
2022/03/09 04:25:09;;;;;;;16.93;10.30;;;;;;;-5.71;100.00;97057.34;5008028;28;20502;-72
2022/03/09 04:27:36;;;;;;;13.80;11.27;;;;;;;-5.63;100.00;97092.34;4975697;28;20456;-72
2022/03/09 04:30:07;;;;;;;15.13;10.30;;;;;;;-5.89;100.00;97082.94;4991752;28;20452;-72
2022/03/09 04:32:34;;;;;;;13.17;10.03;;;;;;;-6.02;100.00;97088.94;4991850;28;20482;-72
2022/03/09 04:35:02;;;;;;;12.27;9.60;;;;;;;-5.68;100.00;97100.69;5007038;28;20500;-72
2022/03/09 04:37:33;;;;;;;13.93;10.20;;;;;;;-5.68;100.00;97099.91;4993103;28;20434;-72
2022/03/09 04:40:03;;;;;;;15.33;9.77;;;;;;;-5.73;100.00;97103.09;4991935;28;20501;-72
2022/03/09 04:42:30;;;;;;;20.83;9.87;;;;;;;-5.78;100.00;97099.53;4993012;28;20432;-72
2022/03/09 04:44:57;;;;;;;19.73;9.27;;;;;;;-5.57;100.00;97099.28;5007564;28;20468;-72
2022/03/09 04:47:24;;;;;;;11.47;8.30;;;;;;;-5.67;100.00;97091.19;4992859;28;20432;-72
2022/03/09 04:49:51;;;;;;;15.80;9.60;;;;;;;-5.54;100.00;97103.22;5007635;28;20490;-72
2022/03/09 04:52:19;;;;;;;10.83;9.03;;;;;;;-5.72;100.00;97101.31;4992760;28;20432;-72
2022/03/09 04:54:47;;;;;;;16.60;10.67;;;;;;;-5.79;100.00;97097.94;5007584;28;20483;-72
2022/03/09 04:57:14;;;;;;;16.33;10.03;;;;;;;-5.89;100.00;97098.38;5007541;28;20448;-72
2022/03/09 04:59:41;;;;;;;13.43;9.13;;;;;;;-5.91;100.00;97090.09;4994692;28;20539;-72
2022/03/09 05:02:09;;;;;;;13.87;8.47;;;;;;;-6.18;100.00;97081.66;4975066;28;20531;-72
2022/03/09 05:04:36;;;;;;;19.20;10.47;;;;;;;-6.10;100.00;97086.59;4991137;28;20464;-72
2022/03/09 05:07:03;;;;;;;14.13;9.10;;;;;;;-6.27;100.00;97062.28;4991183;28;20428;-72
2022/03/09 05:09:31;;;;;;;11.90;9.50;;;;;;;-6.13;100.00;97084.44;4992528;28;20428;-72
2022/03/09 05:11:59;;;;;;;17.33;12.07;;;;;;;-6.15;100.00;97091.53;5007210;28;20551;-72
2022/03/09 05:14:25;;;;;;;27.43;9.40;;;;;;;-6.37;100.00;97070.41;5007049;28;20518;-72
2022/03/09 05:16:52;;;;;;;20.70;10.13;;;;;;;-6.32;100.00;97060.31;4992261;28;21035;-72
2022/03/09 05:19:19;;;;;;;15.13;10.90;;;;;;;-6.48;100.00;97058.16;5007269;28;20531;-72
2022/03/09 05:21:46;;;;;;;39.50;10.27;;;;;;;-6.50;100.00;97060.16;4990505;28;20436;-72
2022/03/09 05:24:33;;;;;;;14.67;8.57;;;;;;;-6.29;100.00;97085.63;5007363;28;20817;-72
2022/03/09 05:27:00;;;;;;;19.63;9.10;;;;;;;-6.40;100.00;97091.41;4990853;28;20805;-72
2022/03/09 05:29:28;;;;;;;12.93;9.13;;;;;;;-6.58;100.00;97056.00;5006824;28;20456;-72
2022/03/09 05:31:54;;;;;;;19.60;9.30;;;;;;;-6.38;100.00;97096.34;5007065;28;20431;-72
2022/03/09 05:34:21;;;;;;;17.13;8.97;;;;;;;-6.78;100.00;97032.09;5006749;28;20512;-71
2022/03/09 05:36:48;;;;;;;13.10;8.40;;;;;;;-6.41;100.00;97084.69;4990585;28;20440;-72
2022/03/09 05:39:14;;;;;;;13.57;7.83;;;;;;;-6.51;100.00;97068.84;4974638;28;20482;-71
2022/03/09 05:41:41;;;;;;;16.20;9.30;;;;;;;-6.48;100.00;97075.38;5006874;28;20533;-71
2022/03/09 05:44:08;;;;;;;13.37;12.10;;;;;;;-6.36;100.00;97079.72;4990401;28;20488;-71
2022/03/09 05:46:35;;;;;;;28.03;8.93;;;;;;;-6.03;100.00;97064.19;5006791;28;20451;-71
2022/03/09 05:49:02;;;;;;;17.50;9.93;;;;;;;-5.70;100.00;97105.25;5006728;28;20451;-71
2022/03/09 05:51:29;;;;;;;14.60;9.90;;;;;;;-5.53;100.00;97110.72;5006733;28;20443;-71
2022/03/09 05:53:56;;;;;;;17.63;9.50;;;;;;;-5.97;100.00;97093.50;5006619;28;20509;-71
2022/03/09 05:56:23;;;;;;;12.97;8.50;;;;;;;-6.10;100.00;97119.25;5006675;28;20491;-71
2022/03/09 05:58:51;;;;;;;15.23;10.33;;;;;;;-6.07;100.00;97124.78;5006716;28;20925;-71
2022/03/09 06:01:20;;;;;;;11.70;8.50;;;;;;;-6.05;100.00;97119.44;4991737;28;20432;-72
2022/03/09 06:03:48;;;;;;;19.40;10.23;;;;;;;-5.98;100.00;97117.66;4991552;28;20482;-72
2022/03/09 06:06:15;;;;;;;16.50;9.63;;;;;;;-5.94;100.00;97121.41;4990451;28;20519;-71
2022/03/09 06:08:41;;;;;;;13.83;10.50;;;;;;;-6.40;100.00;97057.19;5006526;28;20444;-71
2022/03/09 06:11:08;;;;;;;20.47;12.57;;;;;;;-6.10;100.00;97117.47;4991583;28;20428;-71
2022/03/09 06:13:35;;;;;;;13.30;11.60;;;;;;;-5.85;100.00;97134.81;4990091;28;21115;-71
2022/03/09 06:16:01;;;;;;;14.90;11.07;;;;;;;-6.00;100.00;97119.63;4991647;28;20479;-72
2022/03/09 06:18:29;;;;;;;17.63;10.37;;;;;;;-5.79;100.00;97159.75;5006641;28;20436;-71
2022/03/09 06:20:56;;;;;;;17.80;12.30;;;;;;;-6.10;100.00;97150.13;5006680;28;20526;-72
2022/03/09 06:23:22;;;;;;;13.93;11.27;;;;;;;-6.15;100.00;97163.56;4974286;28;20469;-72
2022/03/09 06:25:52;;;;;;;14.17;9.73;;;;;;;-6.05;100.00;97163.97;4990330;28;20448;-72
2022/03/09 06:28:19;;;;;;;21.00;11.73;;;;;;;-5.84;100.00;97165.50;5006269;28;20441;-72
2022/03/09 06:30:46;;;;;;;22.50;10.97;;;;;;;-5.72;100.00;97169.06;4989949;28;20479;-71
2022/03/09 06:33:12;;;;;;;20.13;14.43;;;;;;;-5.99;100.00;97126.38;5008506;28;20440;-71
2022/03/09 06:35:39;;;;;;;20.87;12.60;;;;;;;-5.79;100.00;97144.28;4995262;28;20513;-71
2022/03/09 06:38:11;;;;;;;16.97;12.73;;;;;;;-5.67;100.00;97146.03;4994174;28;20463;-72
2022/03/09 06:40:37;;;;;;;18.50;13.93;;;;;;;-5.48;100.00;97171.94;4995608;28;20853;-71
2022/03/09 06:43:04;;;;;;;20.20;16.40;;;;;;;-5.40;100.00;97169.94;4993935;28;20531;-71
2022/03/09 06:45:31;;;;;;;28.03;16.90;;;;;;;-5.40;100.00;97156.25;4994946;28;20480;-71
2022/03/09 06:48:00;;;;;;;20.33;15.87;;;;;;;-5.32;100.00;97165.56;5009471;28;20433;-72
2022/03/09 06:50:26;;;;;;;17.30;14.83;;;;;;;-5.22;100.00;97177.00;4993552;28;20491;-72
2022/03/09 06:52:55;;;;;;;21.43;14.47;;;;;;;-5.17;100.00;97171.25;4977724;28;20440;-72
2022/03/09 06:55:22;;;;;;;20.53;14.23;;;;;;;-5.12;100.00;97185.09;5009573;28;21160;-72
2022/03/09 06:57:49;;;;;;;27.27;14.07;;;;;;;-5.00;100.00;97174.13;4993388;28;20475;-72
2022/03/09 07:00:17;;;;;;;20.10;15.20;;;;;;;-4.97;100.00;97148.72;5010077;28;20993;-72
2022/03/09 07:02:44;;;;;;;19.23;15.60;;;;;;;-4.87;100.00;97177.44;5009703;28;20437;-72
2022/03/09 07:05:12;;;;;;;21.43;15.33;;;;;;;-4.82;100.00;97175.00;4993300;28;20830;-72
2022/03/09 07:07:40;;;;;;;20.17;13.73;;;;;;;-4.79;100.00;97160.94;4994536;28;20456;-72
2022/03/09 07:10:10;;;;;;;19.50;16.27;;;;;;;-4.64;100.00;97181.28;4993318;28;20440;-72
2022/03/09 07:12:45;;;;;;;22.40;15.50;;;;;;;-4.44;100.00;97184.50;4993218;28;20442;-72
2022/03/09 07:15:13;;;;;;;23.87;16.00;;;;;;;-4.27;100.00;97180.41;4994426;28;20838;-72
2022/03/09 07:17:40;;;;;;;17.27;15.57;;;;;;;-4.07;100.00;97182.03;5009280;28;20538;-73
2022/03/09 07:20:08;;;;;;;19.10;15.23;;;;;;;-3.86;100.00;97186.81;5009380;28;20486;-73
2022/03/09 07:22:39;;;;;;;17.33;15.50;;;;;;;-3.98;100.00;97136.88;4993101;28;20531;-73
2022/03/09 07:25:06;;;;;;;19.70;14.07;;;;;;;-3.64;100.00;97162.13;5009117;28;20561;-73
2022/03/09 07:27:33;;;;;;;19.73;14.03;;;;;;;-3.28;100.00;97181.25;4977064;28;20531;-72
2022/03/09 07:30:00;;;;;;;17.83;15.87;;;;;;;-2.94;100.00;97190.16;5009062;28;20464;-71
2022/03/09 07:32:26;;;;;;;22.57;17.17;;;;;;;-2.96;100.00;97163.72;4992971;28;20972;-72
2022/03/09 07:35:13;;;;;;;23.93;20.10;;;;;;;-2.45;100.00;97188.31;4992531;28;20475;-73
2022/03/09 07:37:40;;;;;;;18.90;16.70;;;;;;;-2.46;100.00;97159.03;4992766;28;20428;-72
2022/03/09 07:40:07;;;;;;;18.20;14.60;;;;;;;-2.06;100.00;97191.31;5008933;28;20559;-72
2022/03/09 07:42:34;;;;;;;23.77;16.20;;;;;;;-1.74;100.00;97191.75;4993909;28;20523;-72
2022/03/09 07:45:03;;;;;;;21.77;15.13;;;;;;;-1.48;100.00;97199.06;4993578;28;20449;-73
2022/03/09 07:47:31;;;;;;;13.10;11.80;;;;;;;-1.35;100.00;97185.84;5008849;28;20964;-72
2022/03/09 07:50:00;;;;;;;15.70;13.40;;;;;;;-1.18;100.00;97211.09;4992727;28;20431;-72
2022/03/09 07:52:27;;;;;;;12.50;11.00;;;;;;;-1.06;100.00;97206.69;4992428;28;20487;-72
2022/03/09 07:54:54;;;;;;;16.27;12.13;;;;;;;-1.00;100.00;97211.72;4992331;28;21024;-72
2022/03/09 07:57:20;;;;;;;17.03;11.40;;;;;;;-1.12;100.00;97184.22;4992362;28;20437;-72
2022/03/09 07:59:47;;;;;;;14.93;11.20;;;;;;;-0.84;100.00;97212.00;5008648;28;20448;-73
2022/03/09 08:02:13;;;;;;;18.17;12.90;;;;;;;-0.48;100.00;97201.25;4992212;28;20468;-72
2022/03/09 08:04:40;;;;;;;17.13;11.57;;;;;;;-0.27;100.00;97217.16;4993537;28;20450;-72
2022/03/09 08:07:07;;;;;;;17.87;13.70;;;;;;;-0.01;100.00;97211.38;4993533;28;20467;-72
2022/03/09 08:09:34;;;;;;;16.53;12.57;;;;;;;-0.32;100.00;97174.50;4992239;28;20481;-72
2022/03/09 08:12:01;;;;;;;13.90;11.40;;;;;;;-0.01;100.00;97212.16;4993495;28;20467;-72
2022/03/09 08:14:27;;;;;;;12.80;11.40;;;;;;;-0.47;100.00;97156.06;5008235;28;20468;-72
2022/03/09 08:16:54;;;;;;;18.70;10.90;;;;;;;-0.14;100.00;97204.66;4992022;28;20531;-71
2022/03/09 08:19:21;;;;;;;13.80;10.83;;;;;;;-0.34;100.00;97191.34;4993724;28;20433;-71
2022/03/09 08:21:47;;;;;;;13.50;10.93;;;;;;;-0.17;100.00;97222.53;4991929;28;20467;-71
2022/03/09 08:24:14;;;;;;;20.63;13.17;;;;;;;0.17;100.00;97208.53;5008204;28;20488;-71
2022/03/09 08:26:41;;;;;;;18.50;12.90;;;;;;;0.08;100.00;97183.97;5008323;28;20442;-71
2022/03/09 08:29:08;;;;;;;15.90;11.23;;;;;;;0.34;100.00;97207.72;5008221;28;20523;-71
2022/03/09 08:31:34;;;;;;;13.33;8.23;;;;;;;0.42;100.00;97178.72;5007873;28;20821;-72
2022/03/09 08:34:08;;;;;;;12.90;11.60;;;;;;;0.41;100.00;97209.16;5007155;28;20483;-71
2022/03/09 08:36:34;;;;;;;11.87;9.73;;;;;;;0.78;100.00;97214.56;4975569;28;20469;-72
2022/03/09 08:39:01;;;;;;;10.93;9.40;;;;;;;0.74;100.00;97186.66;5008114;28;20922;-72
2022/03/09 08:41:29;;;;;;;19.67;10.30;;;;;;;1.03;100.00;97198.47;4991804;28;20808;-72
2022/03/09 08:43:56;;;;;;;13.13;10.90;;;;;;;1.12;100.00;97193.63;4992919;28;20460;-72
2022/03/09 08:46:23;;;;;;;14.63;11.20;;;;;;;1.23;100.00;97204.94;4991405;28;20963;-72
2022/03/09 08:48:50;;;;;;;13.43;10.63;;;;;;;0.97;100.00;97196.06;5007796;28;20532;-72
2022/03/09 08:51:21;;;;;;;12.63;9.63;;;;;;;0.77;100.00;97197.38;5007609;28;20473;-72
2022/03/09 08:53:48;;;;;;;14.63;11.27;;;;;;;0.98;98.96;97195.03;4991534;28;20898;-72
2022/03/09 08:56:15;;;;;;;17.20;11.47;;;;;;;1.21;98.63;97215.63;4990786;28;20467;-72
2022/03/09 08:58:43;;;;;;;14.17;9.97;;;;;;;1.26;95.80;97188.81;5007733;28;20456;-72
2022/03/09 09:01:10;;;;;;;15.00;10.23;;;;;;;1.88;91.90;97202.19;4992622;28;20456;-72
2022/03/09 09:03:56;;;;;;;12.30;8.13;;;;;;;1.95;87.61;97202.75;4991705;28;20898;-72
2022/03/09 09:06:23;;;;;;;12.00;8.80;;;;;;;1.99;87.29;97184.78;5007561;28;20460;-73
2022/03/09 09:08:50;;;;;;;8.13;7.23;;;;;;;2.03;77.85;97188.47;4975027;28;20446;-72
2022/03/09 09:11:16;;;;;;;10.03;7.57;;;;;;;2.21;78.28;97214.16;4992584;28;20527;-72
2022/03/09 09:13:43;;;;;;;10.47;8.57;;;;;;;2.34;82.22;97210.34;4992437;28;20910;-72
2022/03/09 09:16:10;;;;;;;9.57;7.90;;;;;;;2.33;78.13;97219.97;4991191;28;20546;-72
2022/03/09 09:18:38;;;;;;;9.90;7.30;;;;;;;2.45;76.22;97213.81;4990875;28;20452;-72
2022/03/09 09:21:05;;;;;;;11.70;7.57;;;;;;;2.42;77.49;97207.25;5007285;28;20809;-72
2022/03/09 09:23:32;;;;;;;11.60;9.87;;;;;;;2.64;78.88;97194.84;4992063;28;21051;-72
2022/03/09 09:25:59;;;;;;;15.00;10.83;;;;;;;2.50;77.21;97191.13;4992221;28;20429;-72
2022/03/09 09:28:27;;;;;;;10.90;8.43;;;;;;;2.77;76.54;97211.09;5006851;28;20932;-72
2022/03/09 09:30:53;;;;;;;9.70;8.80;;;;;;;2.73;77.77;97210.81;5006967;28;20516;-72
2022/03/09 09:33:20;;;;;;;14.90;9.37;;;;;;;2.99;77.00;97222.19;5006769;28;20476;-72
2022/03/09 09:35:48;;;;;;;14.53;10.30;;;;;;;2.96;74.81;97193.97;5006853;28;20491;-72
2022/03/09 09:38:15;;;;;;;9.33;7.50;;;;;;;2.94;74.29;97185.59;4991966;28;20427;-72
2022/03/09 09:40:45;;;;;;;13.27;8.57;;;;;;;3.26;74.05;97216.78;4990616;28;21004;-72
2022/03/09 09:43:14;;;;;;;11.13;9.60;;;;;;;3.33;73.93;97216.53;5006625;28;20451;-72
2022/03/09 09:45:41;;;;;;;13.47;10.13;;;;;;;3.45;71.85;97214.47;4991954;28;20886;-72
2022/03/09 09:48:10;;;;;;;9.93;7.93;;;;;;;3.46;70.40;97205.59;5006793;28;20536;-72
2022/03/09 09:50:38;;;;;;;9.80;8.50;;;;;;;3.67;68.87;97216.88;5006722;28;20473;-72
2022/03/09 09:53:07;;;;;;;9.83;8.83;;;;;;;3.76;66.75;97212.72;5006613;28;20472;-72
2022/03/09 09:55:34;;;;;;;12.53;9.50;;;;;;;3.52;66.06;97194.91;4990360;28;20474;-72
2022/03/09 09:58:01;;;;;;;10.67;8.40;;;;;;;3.64;66.69;97199.88;5006788;28;20469;-72
2022/03/09 10:00:28;;;;;;;9.53;7.90;;;;;;;3.63;67.62;97193.09;4990279;28;20529;-72
2022/03/09 10:03:01;;;;;;;9.80;8.70;;;;;;;3.78;66.51;97185.25;4991809;28;20433;-72
2022/03/09 10:05:29;;;;;;;10.90;7.60;;;;;;;3.98;64.33;97187.06;4990276;28;20466;-72
2022/03/09 10:08:08;;;;;;;11.60;8.50;;;;;;;4.38;62.85;97204.56;4991547;28;20889;-72
2022/03/09 10:10:39;;;;;;;9.47;8.10;;;;;;;4.54;61.97;97188.84;5006617;28;20442;-72
2022/03/09 10:13:10;;;;;;;8.87;7.97;;;;;;;4.72;60.25;97207.41;5006438;28;20466;-72
2022/03/09 10:15:36;;;;;;;13.20;8.07;;;;;;;4.58;59.05;97163.69;5006200;28;20532;-72
2022/03/09 10:18:21;;;;;;;8.50;6.83;;;;;;;4.86;57.81;97198.97;5006676;28;20508;-72
2022/03/09 10:20:50;;;;;;;9.10;8.20;;;;;;;4.90;57.98;97205.25;5006684;28;20849;-72
2022/03/09 10:23:20;;;;;;;10.33;7.73;;;;;;;5.04;57.98;97209.63;4990119;28;21013;-72
2022/03/09 10:25:48;;;;;;;8.40;6.97;;;;;;;5.14;56.56;97203.56;5006495;28;20439;-72
2022/03/09 10:28:15;;;;;;;7.80;6.67;;;;;;;5.23;55.85;97206.44;4990145;28;20527;-72
2022/03/09 10:30:43;;;;;;;10.13;7.63;;;;;;;5.18;54.28;97201.19;4991763;28;20483;-72
2022/03/09 10:33:12;;;;;;;11.37;7.07;;;;;;;5.08;54.41;97178.47;4989985;28;20553;-72
2022/03/09 10:35:49;;;;;;;14.40;7.00;;;;;;;5.14;54.04;97202.78;4991324;28;20524;-72
2022/03/09 10:38:15;;;;;;;9.03;7.93;;;;;;;5.33;53.23;97193.25;5006453;28;20946;-72
2022/03/09 10:40:45;;;;;;;10.70;7.43;;;;;;;4.77;53.39;97171.75;4990087;28;20499;-72
2022/03/09 10:43:14;;;;;;;8.57;6.60;;;;;;;5.01;54.27;97194.44;4991203;28;20437;-74
2022/03/09 10:46:10;;;;;;;9.23;7.90;;;;;;;4.99;54.49;97196.56;4990563;28;20444;-72
2022/03/09 10:49:00;;;;;;;9.47;6.80;;;;;;;5.48;51.86;97195.81;5006275;28;20554;-72
2022/03/09 10:51:29;;;;;;;11.67;9.03;;;;;;;5.85;51.60;97194.50;4990045;28;20516;-72
2022/03/09 10:53:58;;;;;;;9.20;8.30;;;;;;;5.95;50.29;97165.59;5005972;28;20464;-72
2022/03/09 10:56:25;;;;;;;8.40;7.30;;;;;;;6.16;48.93;97190.63;5006156;28;20952;-72
2022/03/09 10:58:51;;;;;;;10.93;8.63;;;;;;;6.08;47.30;97193.81;5006085;28;20446;-72
2022/03/09 11:01:20;;;;;;;9.07;7.67;;;;;;;6.09;46.37;97178.84;4990269;28;20446;-72
2022/03/09 11:03:47;;;;;;;7.33;6.43;;;;;;;6.26;48.08;97189.72;5005806;28;20466;-72
2022/03/09 11:06:14;;;;;;;7.83;7.03;;;;;;;5.90;48.77;97179.53;5006283;28;20976;-72
2022/03/09 11:08:41;;;;;;;9.37;8.47;;;;;;;6.05;48.52;97160.25;5006249;28;20456;-72
2022/03/09 11:11:09;;;;;;;10.07;7.43;;;;;;;6.09;47.23;97150.75;5006095;28;20434;-72
2022/03/09 11:13:38;;;;;;;10.37;8.30;;;;;;;6.34;46.05;97180.47;4990993;28;20449;-72
2022/03/09 11:16:06;;;;;;;8.53;6.30;;;;;;;6.33;46.47;97163.94;5005990;28;20466;-72
2022/03/09 11:18:34;;;;;;;7.07;6.27;;;;;;;6.74;42.54;97166.91;4992319;28;20430;-72
2022/03/09 11:21:05;;;;;;;7.60;6.90;;;;;;;6.91;40.54;97142.00;5009662;28;20434;-72